Barberville, Florida
Current Conditions -  °F | °C
As of 6:50 PM on Thursday 27 Nov 2014 (Local Time) from KOMN Reporting Station
Clear Clear  
Wind Chill: 52°   Ceiling: Unl
Heat Index: 52°   Visibility: 10mi
Dew Point: 37°   Wind: 0mph
Humidity: 58%   Direction: NA
Pressure: 30.25"   Gusts: NA
Location:  29.19°N, 81.42°W
Report Text: KOMN 272350Z 00000KT 10SM SKC 11/03 A3025 RMK LAST
Loading
Personal Weather Stations






























Interactive Weather Map New forecast layout! Learn more

10-Day Weather Forecast

Advertisements
Track Severe Weather on mobile